Aviation Digital Data Service (ADDS)

Output produced by METARs form (0533 UTC 21 January 2019)
found at http://www.aviationweather.gov/metar/data/
 
Forecast for: AGGC (CHOISEUL BAY , SB)
Text: TAF AGGC 202320Z 2100/2124 34010KT 9999 FEW018 BKN100 INTER 2000/2106 5000 TSSH SCT015 FEW016CB BKN028 Q 1008 1006 1005 1007
Forecast period: 0000 UTC 21 January 2019 to 0000 UTC 22 January 2019
Forecast type: FROM: standard forecast or significant change
Winds: from the NNW (340 degrees) at 12 MPH (10 knots; 5.1 m/s)
Visibility: 6 or more miles 10+ km)
Ceiling: 10000 feet AGL
Clouds: few clouds at 1800 feet AGL
broken clouds at 10000 feet AGL
Weather: no significant weather forecast for this period
Text:
Forecast period: 0000 UTC 20 January 2019 to 0600 UTC 21 January 2019
Forecast type: TEMPORARY: The following changes expected for less than half the time period
Visibility: 3 miles (5 km)
Ceiling: 2800 feet AGL
Clouds: scattered clouds at 1500 feet AGL
few clouds at 1600 feet AGL
broken clouds at 2800 feet AGL
Weather: SH TS  (showers, thunderstorm)